Time;durP1;ratioP1;P1;durP2;ratioP2;P2;SDS_P1;SDS_P2;PMS_P1;PMS_P2;Temp;Humidity;BMP_temperature;BMP_pressure;BME280_temperature;BME280_humidity;BME280_pressure;Samples;Min_cycle;Max_cycle;Signal;HPM_P1;HPM_P2
2023/02/24 00:01:36;;;;;;;7.30;4.60;;;;;;;;;;5112313;28;20485;-43
2023/02/24 00:04:06;;;;;;;7.70;4.97;;;;;;;;;;5111111;28;20032;-40
2023/02/24 00:06:35;;;;;;;6.43;4.63;;;;;;;;;;5112190;28;20508;-43
2023/02/24 00:09:06;;;;;;;7.88;4.13;;;;;;;;;;5112419;28;20076;-44
2023/02/24 00:11:37;;;;;;;7.57;4.93;;;;;;;;;;5112896;28;20024;-40
2023/02/24 00:14:06;;;;;;;6.43;4.20;;;;;;;;;;5111928;28;20031;-42
2023/02/24 00:16:33;;;;;;;6.97;4.60;;;;;;;;;;5112021;28;20353;-42
2023/02/24 00:19:00;;;;;;;6.68;4.43;;;;;;;;;;5112271;28;20030;-43
2023/02/24 00:21:27;;;;;;;5.78;4.07;;;;;;;;;;5112349;28;20016;-42
2023/02/24 00:23:53;;;;;;;6.20;4.53;;;;;;;;;;5111983;28;20477;-39
2023/02/24 00:26:19;;;;;;;6.30;4.75;;;;;;;;;;5111847;28;20073;-43
2023/02/24 00:28:45;;;;;;;6.22;4.88;;;;;;;;;;5111867;28;20386;-41
2023/02/24 00:31:13;;;;;;;6.40;4.47;;;;;;;;;;5111846;28;20462;-43
2023/02/24 00:33:40;;;;;;;8.52;4.53;;;;;;;;;;5112079;28;20072;-42
2023/02/24 00:36:07;;;;;;;6.25;4.15;;;;;;;;;;5111392;28;20020;-43
2023/02/24 00:38:34;;;;;;;8.07;4.60;;;;;;;;;;5111914;28;20038;-43
2023/02/24 00:41:13;;;;;;;6.00;4.32;;;;;;;;;;5111800;28;20016;-42
2023/02/24 00:43:39;;;;;;;5.35;3.95;;;;;;;;;;5111943;28;20077;-43
2023/02/24 00:46:10;;;;;;;7.35;4.57;;;;;;;;;;5111726;28;20023;-40
2023/02/24 00:48:40;;;;;;;8.57;4.93;;;;;;;;;;5111792;28;20023;-42
2023/02/24 00:51:09;;;;;;;7.07;4.70;;;;;;;;;;5111700;28;20027;-41
2023/02/24 00:53:35;;;;;;;8.73;4.70;;;;;;;;;;5112129;28;20027;-42
2023/02/24 00:56:01;;;;;;;6.32;4.55;;;;;;;;;;5111450;28;20043;-42
2023/02/24 00:58:28;;;;;;;6.35;4.43;;;;;;;;;;5111672;28;20397;-43
2023/02/24 01:00:54;;;;;;;6.30;4.30;;;;;;;;;;5111526;28;20035;-42
2023/02/24 01:03:21;;;;;;;6.00;3.85;;;;;;;;;;5114766;28;20099;-42
2023/02/24 01:05:47;;;;;;;6.22;4.47;;;;;;;;;;5115625;28;20024;-39
2023/02/24 01:08:20;;;;;;;6.15;4.68;;;;;;;;;;5114394;28;20030;-39
2023/02/24 01:12:00;;;;;;;6.22;4.60;;;;;;;;;;5115946;27;20027;-43
2023/02/24 01:13:34;;;;;;;7.90;5.55;;;;;;;;;;5115436;28;20042;-40
2023/02/24 01:16:02;;;;;;;9.77;5.88;;;;;;;;;;5115385;28;20398;-37
2023/02/24 01:18:29;;;;;;;13.75;7.32;;;;;;;;;;5115576;28;20026;-44
2023/02/24 01:20:57;;;;;;;12.15;7.60;;;;;;;;;;5115484;28;20544;-41
2023/02/24 01:23:24;;;;;;;9.63;6.28;;;;;;;;;;5115612;28;20375;-40
2023/02/24 01:25:50;;;;;;;10.75;6.72;;;;;;;;;;5115290;27;20027;-42
2023/02/24 01:28:16;;;;;;;9.93;5.80;;;;;;;;;;5115691;28;20026;-43
2023/02/24 01:30:43;;;;;;;10.35;5.32;;;;;;;;;;5115294;28;20019;-42
2023/02/24 01:33:13;;;;;;;7.35;4.90;;;;;;;;;;5115279;28;20030;-42
2023/02/24 01:35:39;;;;;;;6.90;4.97;;;;;;;;;;5115537;27;20068;-43
2023/02/24 01:38:05;;;;;;;9.10;4.78;;;;;;;;;;5115080;28;20059;-42
2023/02/24 01:40:31;;;;;;;6.88;5.05;;;;;;;;;;5115072;28;20055;-42
2023/02/24 01:42:58;;;;;;;7.25;4.85;;;;;;;;;;5114919;28;20111;-43
2023/02/24 01:45:27;;;;;;;7.47;5.25;;;;;;;;;;5114997;28;20027;-42
2023/02/24 01:47:56;;;;;;;8.85;5.68;;;;;;;;;;5114788;28;20072;-43
2023/02/24 01:50:24;;;;;;;9.25;5.00;;;;;;;;;;5114863;28;20031;-43
2023/02/24 01:52:54;;;;;;;8.48;5.20;;;;;;;;;;5114857;28;20353;-39
2023/02/24 01:55:27;;;;;;;10.07;5.53;;;;;;;;;;5114759;28;20024;-40
2023/02/24 01:57:54;;;;;;;8.30;6.22;;;;;;;;;;5114617;28;20016;-42
2023/02/24 02:00:43;;;;;;;11.70;5.70;;;;;;;;;;5114654;28;20058;-42
2023/02/24 02:03:17;;;;;;;8.88;5.60;;;;;;;;;;5114689;28;20011;-43
2023/02/24 02:05:47;;;;;;;8.60;5.67;;;;;;;;;;5114486;28;20028;-41
2023/02/24 02:08:13;;;;;;;8.27;5.88;;;;;;;;;;5114521;28;20028;-39
2023/02/24 02:10:42;;;;;;;7.78;5.32;;;;;;;;;;5114457;28;20035;-42
2023/02/24 02:13:09;;;;;;;8.68;5.63;;;;;;;;;;5114297;28;20038;-42
2023/02/24 02:15:38;;;;;;;7.90;5.60;;;;;;;;;;5114313;28;20106;-40
2023/02/24 02:18:07;;;;;;;8.63;5.32;;;;;;;;;;5114297;28;20077;-42
2023/02/24 02:20:33;;;;;;;8.45;5.30;;;;;;;;;;5114272;28;20020;-43
2023/02/24 02:23:21;;;;;;;9.35;6.10;;;;;;;;;;5114498;28;20034;-43
2023/02/24 02:26:06;;;;;;;7.65;5.22;;;;;;;;;;5114194;28;20106;-41
2023/02/24 02:28:52;;;;;;;7.75;5.20;;;;;;;;;;5114185;28;20102;-42
2023/02/24 02:31:24;;;;;;;7.22;5.22;;;;;;;;;;5114363;28;20022;-42
2023/02/24 02:33:53;;;;;;;10.25;5.63;;;;;;;;;;5114012;28;20016;-40
2023/02/24 02:36:27;;;;;;;7.60;5.40;;;;;;;;;;5113791;27;20032;-43
2023/02/24 02:38:58;;;;;;;11.02;6.25;;;;;;;;;;5114112;28;20020;-44
2023/02/24 02:41:35;;;;;;;10.20;5.90;;;;;;;;;;5113805;28;20456;-42
2023/02/24 02:44:07;;;;;;;8.95;5.93;;;;;;;;;;5113948;28;20081;-43
2023/02/24 02:46:41;;;;;;;8.90;5.93;;;;;;;;;;5113714;27;20469;-43
2023/02/24 02:49:13;;;;;;;7.50;5.53;;;;;;;;;;5113959;28;20119;-43
2023/02/24 02:51:46;;;;;;;10.45;6.50;;;;;;;;;;5113567;27;20028;-42
2023/02/24 02:54:21;;;;;;;8.88;6.30;;;;;;;;;;5113816;28;20020;-43
2023/02/24 02:56:51;;;;;;;9.82;6.47;;;;;;;;;;5113618;28;20367;-42
2023/02/24 02:59:22;;;;;;;10.20;6.43;;;;;;;;;;5113462;28;20027;-42
2023/02/24 03:01:49;;;;;;;7.55;5.43;;;;;;;;;;5113552;28;20016;-43
2023/02/24 03:04:16;;;;;;;8.95;6.13;;;;;;;;;;5113311;28;20067;-39
2023/02/24 03:06:55;;;;;;;10.52;6.50;;;;;;;;;;5113189;28;20077;-42
2023/02/24 03:09:26;;;;;;;10.20;6.07;;;;;;;;;;5113346;28;20028;-42
2023/02/24 03:11:54;;;;;;;12.43;6.53;;;;;;;;;;5111971;28;20027;-42
2023/02/24 03:14:25;;;;;;;8.00;6.03;;;;;;;;;;5113188;28;20465;-42
2023/02/24 03:16:52;;;;;;;10.10;6.57;;;;;;;;;;5112921;28;20023;-39
2023/02/24 03:19:20;;;;;;;9.65;6.70;;;;;;;;;;5113183;28;20023;-43
2023/02/24 03:21:50;;;;;;;8.05;5.45;;;;;;;;;;5113111;28;20023;-43
2023/02/24 03:24:16;;;;;;;12.57;6.57;;;;;;;;;;5112871;28;20023;-43
2023/02/24 03:26:50;;;;;;;8.88;5.95;;;;;;;;;;5112640;28;20103;-40
2023/02/24 03:29:26;;;;;;;8.52;6.68;;;;;;;;;;5112853;28;20098;-42
2023/02/24 03:31:58;;;;;;;10.98;6.82;;;;;;;;;;5112987;28;20059;-43
2023/02/24 03:34:36;;;;;;;10.75;6.90;;;;;;;;;;5112882;28;20034;-43
2023/02/24 03:37:02;;;;;;;9.68;7.00;;;;;;;;;;5112869;28;20139;-43
2023/02/24 03:39:28;;;;;;;9.75;6.72;;;;;;;;;;5112810;28;20032;-39
2023/02/24 03:41:55;;;;;;;9.20;6.20;;;;;;;;;;5112817;28;20034;-41
2023/02/24 03:44:21;;;;;;;11.70;6.80;;;;;;;;;;5112793;28;20397;-41
2023/02/24 03:46:48;;;;;;;10.57;7.60;;;;;;;;;;5112641;28;20031;-42
2023/02/24 03:49:15;;;;;;;11.50;6.80;;;;;;;;;;5111321;28;20084;-42
2023/02/24 03:51:43;;;;;;;10.52;6.68;;;;;;;;;;5112533;28;20481;-39
2023/02/24 03:54:18;;;;;;;10.35;6.53;;;;;;;;;;5112372;28;20068;-42
2023/02/24 03:57:02;;;;;;;8.05;6.25;;;;;;;;;;5112345;28;20382;-43
2023/02/24 03:59:43;;;;;;;9.02;6.38;;;;;;;;;;5110969;28;20634;-43
2023/02/24 04:02:13;;;;;;;7.75;5.82;;;;;;;;;;5112404;28;20068;-43
2023/02/24 04:04:45;;;;;;;11.15;6.50;;;;;;;;;;5112329;28;20080;-42
2023/02/24 04:07:11;;;;;;;10.75;6.90;;;;;;;;;;5112107;28;20462;-43
2023/02/24 04:09:45;;;;;;;9.50;6.32;;;;;;;;;;5112261;27;20038;-43
2023/02/24 04:12:19;;;;;;;9.25;6.30;;;;;;;;;;5112350;28;20053;-41
2023/02/24 04:14:48;;;;;;;11.40;7.50;;;;;;;;;;5112149;28;20027;-42
2023/02/24 04:17:25;;;;;;;8.80;5.93;;;;;;;;;;5111903;28;20498;-42
2023/02/24 04:19:54;;;;;;;10.32;6.63;;;;;;;;;;5112331;28;20060;-42
2023/02/24 04:22:23;;;;;;;9.93;6.28;;;;;;;;;;5112015;28;20477;-42
2023/02/24 04:24:50;;;;;;;10.02;6.80;;;;;;;;;;5112105;28;20161;-43
2023/02/24 04:27:17;;;;;;;8.48;5.68;;;;;;;;;;5111833;28;20603;-43
2023/02/24 04:29:54;;;;;;;11.60;7.05;;;;;;;;;;5111971;28;20038;-42
2023/02/24 04:32:23;;;;;;;9.95;6.97;;;;;;;;;;5112153;28;20039;-43
2023/02/24 04:34:49;;;;;;;10.75;7.15;;;;;;;;;;5112070;28;20039;-42
2023/02/24 04:37:16;;;;;;;10.95;6.78;;;;;;;;;;5110386;28;20115;-42
2023/02/24 04:39:43;;;;;;;10.13;6.68;;;;;;;;;;5111994;28;20320;-43
2023/02/24 04:42:09;;;;;;;8.25;6.18;;;;;;;;;;5111679;28;20016;-42
2023/02/24 04:44:35;;;;;;;12.13;7.45;;;;;;;;;;5112031;28;20027;-42
2023/02/24 04:47:02;;;;;;;10.90;7.15;;;;;;;;;;5111844;28;20031;-42
2023/02/24 04:49:28;;;;;;;10.50;6.63;;;;;;;;;;5111789;28;20108;-43
2023/02/24 04:51:56;;;;;;;12.25;8.00;;;;;;;;;;5111654;28;20047;-43
2023/02/24 04:54:23;;;;;;;9.48;6.53;;;;;;;;;;5111678;28;20102;-41
2023/02/24 04:56:50;;;;;;;10.45;7.47;;;;;;;;;;5111415;28;20031;-43
2023/02/24 04:59:17;;;;;;;10.80;7.28;;;;;;;;;;5111674;28;20024;-43
2023/02/24 05:01:43;;;;;;;12.13;7.80;;;;;;;;;;5111590;28;20103;-43
2023/02/24 05:04:11;;;;;;;9.57;6.50;;;;;;;;;;5111599;28;20028;-43
2023/02/24 05:06:39;;;;;;;12.60;6.95;;;;;;;;;;5111479;28;20023;-43
2023/02/24 05:09:12;;;;;;;10.48;6.68;;;;;;;;;;5111490;28;20085;-42
2023/02/24 05:11:41;;;;;;;12.30;7.38;;;;;;;;;;5111722;28;20039;-43
2023/02/24 05:14:07;;;;;;;10.20;7.15;;;;;;;;;;5110140;28;20035;-43
2023/02/24 05:16:33;;;;;;;9.40;7.07;;;;;;;;;;5111327;28;20389;-41
2023/02/24 05:21:44;;;;;;;12.32;7.68;;;;;;;;;;5111564;28;20035;-43
2023/02/24 05:24:10;;;;;;;15.27;8.73;;;;;;;;;;5111485;28;20031;-43
2023/02/24 05:26:37;;;;;;;12.95;8.52;;;;;;;;;;5111230;28;20027;-43
2023/02/24 05:29:04;;;;;;;12.07;8.13;;;;;;;;;;5111640;28;20036;-42
2023/02/24 05:31:31;;;;;;;12.60;7.88;;;;;;;;;;5111361;28;20315;-43
2023/02/24 05:33:58;;;;;;;14.25;9.02;;;;;;;;;;5111335;28;20128;-40
2023/02/24 05:36:24;;;;;;;12.48;8.45;;;;;;;;;;5111050;28;20027;-41
2023/02/24 05:38:57;;;;;;;13.15;8.55;;;;;;;;;;5111350;28;20023;-43
2023/02/24 05:41:23;;;;;;;11.70;7.63;;;;;;;;;;5111272;28;20060;-43
2023/02/24 05:43:53;;;;;;;11.32;8.25;;;;;;;;;;5111304;28;20106;-42
2023/02/24 05:46:26;;;;;;;12.55;8.57;;;;;;;;;;5111097;28;20058;-42
2023/02/24 05:48:55;;;;;;;11.35;7.57;;;;;;;;;;5113258;28;20098;-43
2023/02/24 05:51:23;;;;;;;15.35;9.00;;;;;;;;;;5114849;28;20020;-41
2023/02/24 05:53:50;;;;;;;14.60;9.02;;;;;;;;;;5114978;28;20103;-43
2023/02/24 05:56:18;;;;;;;11.90;7.97;;;;;;;;;;5114647;28;20016;-43
2023/02/24 05:58:44;;;;;;;14.13;8.85;;;;;;;;;;5114790;28;20446;-40
2023/02/24 06:01:15;;;;;;;12.75;7.97;;;;;;;;;;5114620;28;20112;-39
2023/02/24 06:03:45;;;;;;;12.35;8.90;;;;;;;;;;5114781;28;20024;-43
2023/02/24 06:06:13;;;;;;;14.63;8.38;;;;;;;;;;5114651;28;20063;-42
2023/02/24 06:08:48;;;;;;;11.70;8.13;;;;;;;;;;5114618;28;20478;-44
2023/02/24 06:11:16;;;;;;;13.25;8.73;;;;;;;;;;5114543;28;20020;-43
2023/02/24 06:13:48;;;;;;;15.00;8.98;;;;;;;;;;5114391;28;20487;-41
2023/02/24 06:16:15;;;;;;;13.85;8.98;;;;;;;;;;5114384;28;20054;-41
2023/02/24 06:18:43;;;;;;;12.05;8.95;;;;;;;;;;5114528;28;20499;-43
2023/02/24 06:21:11;;;;;;;13.35;9.35;;;;;;;;;;5114355;28;20024;-43
2023/02/24 06:23:38;;;;;;;13.07;8.93;;;;;;;;;;5114429;28;20635;-42
2023/02/24 06:26:04;;;;;;;13.50;8.48;;;;;;;;;;5114550;28;20389;-42
2023/02/24 06:28:32;;;;;;;13.98;9.02;;;;;;;;;;5114310;28;20050;-44
2023/02/24 06:30:58;;;;;;;14.10;8.73;;;;;;;;;;5114178;28;20046;-43
2023/02/24 06:33:25;;;;;;;13.88;9.27;;;;;;;;;;5112872;28;20023;-42
2023/02/24 06:35:52;;;;;;;14.90;10.02;;;;;;;;;;5112578;28;20542;-42
2023/02/24 06:38:18;;;;;;;13.40;9.57;;;;;;;;;;5114033;28;20081;-42
2023/02/24 06:40:46;;;;;;;13.82;9.18;;;;;;;;;;5113881;28;20024;-43
2023/02/24 06:43:12;;;;;;;14.20;8.77;;;;;;;;;;5114253;28;20363;-43
2023/02/24 06:45:38;;;;;;;12.43;8.60;;;;;;;;;;5114089;28;20054;-42
2023/02/24 06:48:04;;;;;;;13.90;9.02;;;;;;;;;;5113709;28;20111;-42
2023/02/24 06:50:31;;;;;;;13.15;8.98;;;;;;;;;;5113925;28;20059;-41
2023/02/24 06:52:59;;;;;;;13.95;9.50;;;;;;;;;;5113850;27;20049;-43
2023/02/24 06:55:25;;;;;;;13.20;8.70;;;;;;;;;;5113502;28;20022;-43
2023/02/24 06:58:03;;;;;;;13.75;8.68;;;;;;;;;;5113492;28;20020;-43
2023/02/24 07:00:37;;;;;;;14.00;8.65;;;;;;;;;;5112486;28;20435;-43
2023/02/24 07:03:13;;;;;;;16.05;10.20;;;;;;;;;;5113692;28;20012;-42
2023/02/24 07:05:48;;;;;;;15.05;9.98;;;;;;;;;;5113293;28;20598;-42
2023/02/24 07:08:14;;;;;;;;;;;;;;;;;;5113909;28;20056;-42
2023/02/24 07:10:42;;;;;;;34.45;19.30;;;;;;;;;;5113602;28;20309;-43
2023/02/24 07:13:08;;;;;;;41.20;23.45;;;;;;;;;;5113396;28;20200;-43
2023/02/24 07:15:37;;;;;;;39.08;22.60;;;;;;;;;;5113289;28;20103;-40
2023/02/24 07:18:05;;;;;;;38.22;22.02;;;;;;;;;;5113216;28;20126;-41
2023/02/24 07:20:33;;;;;;;39.92;22.77;;;;;;;;;;5113032;28;20019;-43
2023/02/24 07:23:01;;;;;;;38.00;22.42;;;;;;;;;;5113152;28;20020;-42
2023/02/24 07:25:33;;;;;;;35.40;21.70;;;;;;;;;;5113061;28;20030;-43
2023/02/24 07:28:00;;;;;;;35.55;22.23;;;;;;;;;;5112902;28;20422;-41
2023/02/24 07:30:31;;;;;;;34.22;20.38;;;;;;;;;;5112973;28;20020;-43
2023/02/24 07:32:58;;;;;;;33.60;20.83;;;;;;;;;;5111472;28;20027;-41
2023/02/24 07:35:24;;;;;;;34.92;20.92;;;;;;;;;;5112643;28;20027;-39
2023/02/24 07:37:50;;;;;;;39.88;20.55;;;;;;;;;;5113064;28;20381;-42
2023/02/24 07:40:16;;;;;;;32.50;19.65;;;;;;;;;;5112980;28;20080;-43
2023/02/24 07:42:46;;;;;;;32.83;20.25;;;;;;;;;;5112631;28;20024;-42
2023/02/24 07:45:12;;;;;;;36.85;19.45;;;;;;;;;;5112973;28;20102;-43
2023/02/24 07:47:39;;;;;;;34.42;19.58;;;;;;;;;;5112587;28;20035;-43
2023/02/24 07:50:12;;;;;;;31.90;19.60;;;;;;;;;;5112888;28;20019;-43
2023/02/24 07:52:38;;;;;;;33.35;18.15;;;;;;;;;;5112573;28;20035;-39
2023/02/24 07:55:04;;;;;;;33.22;19.45;;;;;;;;;;5112569;28;20028;-38
2023/02/24 07:57:32;;;;;;;31.35;17.95;;;;;;;;;;5112127;28;20030;-42
2023/02/24 07:59:58;;;;;;;31.23;18.55;;;;;;;;;;5112507;28;20464;-43
2023/02/24 08:02:25;;;;;;;30.80;17.70;;;;;;;;;;5112333;28;20051;-42
2023/02/24 08:04:51;;;;;;;30.15;18.42;;;;;;;;;;5112757;28;20031;-43
2023/02/24 08:07:22;;;;;;;28.60;17.27;;;;;;;;;;5112258;28;20027;-43
2023/02/24 08:12:34;;;;;;;29.02;16.52;;;;;;;;;;5112460;28;20056;-43
2023/02/24 08:15:07;;;;;;;30.17;17.30;;;;;;;;;;5112323;28;20393;-43
2023/02/24 08:17:34;;;;;;;26.70;16.38;;;;;;;;;;5112027;28;20107;-42
2023/02/24 08:22:43;;;;;;;28.63;17.00;;;;;;;;;;5112028;28;20036;-42
2023/02/24 08:25:09;;;;;;;25.42;15.80;;;;;;;;;;5112317;28;20029;-43
2023/02/24 08:27:37;;;;;;;22.13;14.15;;;;;;;;;;5112000;28;20055;-42
2023/02/24 08:30:06;;;;;;;26.45;15.10;;;;;;;;;;5112093;28;20038;-41
2023/02/24 08:32:42;;;;;;;23.63;14.70;;;;;;;;;;5111918;28;20027;-43
2023/02/24 08:35:15;;;;;;;24.95;14.02;;;;;;;;;;5111598;28;20031;-41
2023/02/24 08:37:48;;;;;;;25.92;15.23;;;;;;;;;;5111720;28;20143;-43
2023/02/24 08:40:36;;;;;;;22.47;15.00;;;;;;;;;;5111957;28;20385;-43
2023/02/24 08:43:18;;;;;;;31.63;16.80;;;;;;;;;;5111973;28;20303;-41
2023/02/24 08:45:47;;;;;;;28.08;15.90;;;;;;;;;;5112004;28;20106;-36
2023/02/24 08:48:17;;;;;;;25.70;14.35;;;;;;;;;;5111801;28;20063;-42
2023/02/24 08:50:46;;;;;;;24.10;14.30;;;;;;;;;;5111808;28;20024;-43
2023/02/24 08:53:17;;;;;;;25.90;16.10;;;;;;;;;;5112041;28;20176;-41
2023/02/24 08:55:50;;;;;;;29.55;14.63;;;;;;;;;;5111659;28;20477;-43
2023/02/24 08:58:17;;;;;;;25.73;15.18;;;;;;;;;;5111737;28;20027;-38
2023/02/24 09:00:52;;;;;;;24.00;14.68;;;;;;;;;;5111668;28;20039;-43
2023/02/24 09:03:44;;;;;;;27.23;13.38;;;;;;;;;;5111582;28;20393;-43
2023/02/24 09:06:08;;;;;;;28.58;13.52;;;;;;;;;;5111434;28;20177;-42
2023/02/24 09:08:37;;;;;;;27.02;14.00;;;;;;;;;;5111783;28;20019;-43
2023/02/24 09:11:06;;;;;;;20.05;12.40;;;;;;;;;;5111539;28;20101;-39
2023/02/24 09:13:36;;;;;;;23.85;13.05;;;;;;;;;;5111802;28;20106;-43
2023/02/24 09:16:03;;;;;;;21.75;12.35;;;;;;;;;;5111474;28;20065;-42
2023/02/24 09:18:29;;;;;;;22.65;12.48;;;;;;;;;;5111549;28;20020;-43
2023/02/24 09:23:45;;;;;;;22.80;11.73;;;;;;;;;;5113879;28;20405;-43
2023/02/24 09:26:13;;;;;;;21.85;11.80;;;;;;;;;;5115208;28;20103;-37
2023/02/24 09:28:53;;;;;;;20.15;11.32;;;;;;;;;;5115392;27;20034;-43
2023/02/24 09:31:22;;;;;;;20.15;11.20;;;;;;;;;;5115249;28;20036;-41
2023/02/24 09:33:53;;;;;;;21.52;12.05;;;;;;;;;;5115400;28;20346;-43
2023/02/24 09:36:43;;;;;;;22.35;11.40;;;;;;;;;;5115150;28;20110;-43
2023/02/24 09:41:52;;;;;;;18.42;11.52;;;;;;;;;;5115476;28;20058;-43
2023/02/24 09:44:22;;;;;;;18.52;10.68;;;;;;;;;;5115189;28;20023;-42
2023/02/24 09:46:54;;;;;;;16.15;10.10;;;;;;;;;;5114822;28;20036;-40
2023/02/24 09:49:22;;;;;;;18.38;10.05;;;;;;;;;;5115031;28;20027;-43
2023/02/24 09:51:59;;;;;;;17.08;10.68;;;;;;;;;;5115149;28;20071;-40
2023/02/24 09:54:29;;;;;;;16.10;10.18;;;;;;;;;;5115076;28;20031;-41
2023/02/24 09:57:15;;;;;;;18.95;10.30;;;;;;;;;;5114697;28;20023;-43
2023/02/24 10:00:23;;;;;;;15.52;9.15;;;;;;;;;;5115025;28;20518;-41
2023/02/24 10:03:18;;;;;;;16.63;9.32;;;;;;;;;;5114628;28;20202;-42
2023/02/24 10:06:11;;;;;;;15.75;9.18;;;;;;;;;;5114689;28;20042;-34
2023/02/24 10:08:38;;;;;;;19.73;9.02;;;;;;;;;;5114808;27;20015;-43
2023/02/24 10:11:07;;;;;;;14.38;8.88;;;;;;;;;;5114731;28;20114;-42
2023/02/24 10:13:38;;;;;;;15.13;8.70;;;;;;;;;;5114525;28;20103;-42
2023/02/24 10:16:06;;;;;;;16.13;8.93;;;;;;;;;;5114235;28;20028;-37
2023/02/24 10:18:38;;;;;;;14.60;8.50;;;;;;;;;;5114394;28;20032;-42
2023/02/24 10:21:16;;;;;;;15.23;8.82;;;;;;;;;;5114583;28;20032;-40
2023/02/24 10:23:58;;;;;;;13.02;8.13;;;;;;;;;;5114444;28;20553;-43
2023/02/24 10:26:30;;;;;;;14.15;8.13;;;;;;;;;;5114614;28;20012;-41
2023/02/24 10:29:21;;;;;;;14.18;7.53;;;;;;;;;;5114295;28;20015;-41
2023/02/24 10:31:56;;;;;;;12.93;7.57;;;;;;;;;;5093757;27;20032;-43
2023/02/24 10:34:30;;;;;;;18.38;8.45;;;;;;;;;;5113861;28;20454;-41
2023/02/24 10:36:56;;;;;;;14.07;7.50;;;;;;;;;;5114106;28;20028;-40
2023/02/24 10:39:25;;;;;;;16.83;7.60;;;;;;;;;;5114347;28;20110;-38
2023/02/24 10:41:57;;;;;;;10.52;6.82;;;;;;;;;;5114009;28;20034;-43
2023/02/24 10:44:25;;;;;;;11.82;6.97;;;;;;;;;;5114126;28;20069;-42
2023/02/24 10:47:10;;;;;;;11.75;7.00;;;;;;;;;;5113879;28;20035;-41
2023/02/24 10:49:36;;;;;;;;;;;;;;;;;;5113084;28;20028;-41
2023/02/24 10:52:08;;;;;;;11.55;6.93;;;;;;;;;;5113796;28;19904;-41
2023/02/24 10:55:04;;;;;;;10.35;6.40;;;;;;;;;;5113790;28;20072;-43
2023/02/24 10:57:35;;;;;;;12.38;6.47;;;;;;;;;;5113675;28;20103;-43
2023/02/24 11:03:08;;;;;;;12.70;6.85;;;;;;;;;;5113615;28;20102;-42
2023/02/24 11:08:38;;;;;;;13.05;6.53;;;;;;;;;;5113797;28;20046;-42
2023/02/24 11:17:13;;;;;;;11.48;6.60;;;;;;;;;;5113707;28;20050;-42
2023/02/24 11:17:14;;;;;;;;;;;;;;;;;;5113523;28;20042;-43
2023/02/24 11:19:45;;;;;;;8.90;5.88;;;;;;;;;;5113378;28;19904;-39
2023/02/24 11:22:16;;;;;;;11.30;5.78;;;;;;;;;;5113093;28;20026;-40
2023/02/24 11:24:43;;;;;;;8.73;5.80;;;;;;;;;;5113338;28;20452;-43
2023/02/24 11:27:10;;;;;;;19.85;7.55;;;;;;;;;;5112906;28;20042;-42
2023/02/24 11:29:36;;;;;;;25.85;7.90;;;;;;;;;;5113254;28;20030;-43
2023/02/24 11:32:02;;;;;;;12.95;6.72;;;;;;;;;;5113293;28;20024;-43
2023/02/24 11:34:31;;;;;;;20.35;7.25;;;;;;;;;;5112689;27;20023;-43
2023/02/24 11:36:57;;;;;;;15.10;7.47;;;;;;;;;;5111634;28;20043;-42
2023/02/24 11:39:32;;;;;;;18.63;7.53;;;;;;;;;;5113344;28;20031;-41
2023/02/24 11:42:00;;;;;;;19.50;7.55;;;;;;;;;;5113078;28;20560;-43
2023/02/24 11:44:29;;;;;;;20.95;7.57;;;;;;;;;;5113016;28;20099;-34
2023/02/24 11:47:02;;;;;;;16.85;6.72;;;;;;;;;;5112157;28;20076;-33
2023/02/24 11:49:30;;;;;;;16.63;6.13;;;;;;;;;;5112847;28;20027;-32
2023/02/24 11:51:59;;;;;;;14.73;6.60;;;;;;;;;;5112587;28;20519;-32
2023/02/24 11:54:25;;;;;;;16.63;6.47;;;;;;;;;;5112734;28;20036;-38
2023/02/24 11:56:58;;;;;;;11.25;5.97;;;;;;;;;;5112338;28;20023;-33
2023/02/24 11:59:30;;;;;;;18.40;6.25;;;;;;;;;;5112358;28;20106;-35
2023/02/24 12:02:13;;;;;;;14.00;6.53;;;;;;;;;;5112422;28;20470;-34
2023/02/24 12:04:57;;;;;;;12.40;5.97;;;;;;;;;;5112581;28;20061;-32
2023/02/24 12:07:56;;;;;;;11.77;5.50;;;;;;;;;;5112149;28;20031;-38
2023/02/24 12:10:28;;;;;;;11.48;5.60;;;;;;;;;;5089102;28;20035;-32
2023/02/24 12:13:00;;;;;;;11.65;5.40;;;;;;;;;;5112281;28;20027;-42
2023/02/24 12:15:32;;;;;;;11.07;5.75;;;;;;;;;;5112313;28;20028;-41
2023/02/24 12:18:17;;;;;;;12.90;5.60;;;;;;;;;;5111954;28;20027;-35
2023/02/24 12:20:46;;;;;;;11.15;5.47;;;;;;;;;;5112049;28;20058;-41
2023/02/24 12:23:14;;;;;;;12.05;5.50;;;;;;;;;;5112116;28;20028;-41
2023/02/24 12:26:00;;;;;;;8.68;4.90;;;;;;;;;;5112029;28;20019;-38
2023/02/24 12:28:42;;;;;;;14.73;5.65;;;;;;;;;;5111880;28;20023;-38
2023/02/24 12:31:22;;;;;;;8.63;4.68;;;;;;;;;;5112007;27;20027;-42
2023/02/24 12:33:48;;;;;;;11.20;4.78;;;;;;;;;;5111984;28;20119;-39
2023/02/24 12:36:42;;;;;;;11.15;4.60;;;;;;;;;;5111721;28;20102;-36
2023/02/24 12:39:21;;;;;;;10.02;4.60;;;;;;;;;;5112079;28;20532;-41
2023/02/24 12:42:00;;;;;;;7.88;4.50;;;;;;;;;;5110726;28;20504;-42
2023/02/24 12:44:45;;;;;;;9.23;4.60;;;;;;;;;;5111927;28;20020;-42
2023/02/24 12:47:13;;;;;;;8.80;4.88;;;;;;;;;;5111476;28;20072;-37
2023/02/24 12:49:51;;;;;;;11.55;4.88;;;;;;;;;;5111930;28;20038;-34
2023/02/24 12:52:30;;;;;;;8.02;4.10;;;;;;;;;;5111733;28;20510;-37
2023/02/24 12:55:17;;;;;;;10.27;4.75;;;;;;;;;;5111710;28;20477;-34
2023/02/24 12:57:43;;;;;;;8.18;4.22;;;;;;;;;;5111747;28;20409;-38
2023/02/24 13:00:22;;;;;;;11.35;4.38;;;;;;;;;;5116067;28;20032;-36
2023/02/24 13:02:54;;;;;;;7.47;4.03;;;;;;;;;;5115897;28;20727;-35
2023/02/24 13:05:20;;;;;;;7.53;3.97;;;;;;;;;;5116116;28;20043;-36
2023/02/24 13:07:46;;;;;;;11.23;3.85;;;;;;;;;;5114339;28;20030;-42
2023/02/24 13:10:31;;;;;;;10.07;4.22;;;;;;;;;;5115804;28;20032;-38
2023/02/24 13:12:57;;;;;;;11.88;3.95;;;;;;;;;;5115843;28;20015;-40
2023/02/24 13:15:25;;;;;;;9.15;4.43;;;;;;;;;;5115791;28;20517;-36
2023/02/24 13:17:51;;;;;;;9.77;4.20;;;;;;;;;;5115653;28;20090;-41
2023/02/24 13:20:26;;;;;;;9.60;4.50;;;;;;;;;;5115715;28;20019;-37
2023/02/24 13:22:53;;;;;;;7.30;3.90;;;;;;;;;;5115521;28;20090;-41
2023/02/24 13:25:20;;;;;;;8.38;3.78;;;;;;;;;;5115768;28;20055;-38
2023/02/24 13:27:54;;;;;;;8.02;3.58;;;;;;;;;;5115317;28;20393;-42
2023/02/24 13:30:20;;;;;;;;;;;;;;;;;;5114610;28;20042;-37
2023/02/24 13:32:47;;;;;;;8.15;3.78;;;;;;;;;;5115294;28;19903;-32
2023/02/24 13:35:13;;;;;;;8.75;3.80;;;;;;;;;;5115117;28;20035;-40
2023/02/24 13:37:40;;;;;;;8.68;3.90;;;;;;;;;;5115023;28;20031;-38
2023/02/24 13:40:22;;;;;;;6.82;3.35;;;;;;;;;;5115223;28;20031;-32
2023/02/24 13:43:00;;;;;;;9.02;4.00;;;;;;;;;;5115213;28;20024;-42
2023/02/24 13:45:28;;;;;;;6.82;3.72;;;;;;;;;;5115119;28;20039;-37
2023/02/24 13:48:02;;;;;;;9.68;3.92;;;;;;;;;;5115173;28;20053;-39
2023/02/24 13:50:34;;;;;;;9.48;3.63;;;;;;;;;;5115094;28;20028;-40
2023/02/24 13:53:12;;;;;;;7.82;3.53;;;;;;;;;;5114958;27;20385;-35
2023/02/24 13:56:17;;;;;;;15.27;4.68;;;;;;;;;;5114824;28;20027;-42
2023/02/24 13:59:14;;;;;;;6.85;3.45;;;;;;;;;;5071799;28;20036;-36
2023/02/24 14:01:50;;;;;;;6.35;3.50;;;;;;;;;;5055073;28;20043;-36
2023/02/24 14:04:42;;;;;;;9.10;3.58;;;;;;;;;;5104098;28;20111;-40
2023/02/24 14:07:09;;;;;;;9.30;3.50;;;;;;;;;;5112335;28;20035;-38
2023/02/24 14:09:42;;;;;;;11.63;3.60;;;;;;;;;;5114175;28;20112;-36
2023/02/24 14:12:19;;;;;;;6.03;2.97;;;;;;;;;;5114582;28;20039;-37
2023/02/24 14:14:46;;;;;;;7.47;3.40;;;;;;;;;;5114401;28;20028;-34
2023/02/24 14:17:20;;;;;;;5.60;3.45;;;;;;;;;;5114198;28;20159;-40
2023/02/24 14:19:46;;;;;;;7.82;3.63;;;;;;;;;;5114593;28;20020;-35
2023/02/24 14:22:18;;;;;;;6.25;3.50;;;;;;;;;;5114411;28;20080;-42
2023/02/24 14:24:44;;;;;;;5.45;3.15;;;;;;;;;;5114309;27;20363;-42
2023/02/24 14:27:36;;;;;;;6.93;3.33;;;;;;;;;;5114149;28;20035;-40
2023/02/24 14:30:02;;;;;;;7.93;3.42;;;;;;;;;;5112357;28;20044;-33
2023/02/24 14:32:28;;;;;;;7.03;3.67;;;;;;;;;;5114241;27;20036;-42
2023/02/24 14:34:54;;;;;;;7.43;3.40;;;;;;;;;;5114176;28;20028;-42
2023/02/24 14:37:26;;;;;;;5.50;3.03;;;;;;;;;;5114198;28;20385;-42
2023/02/24 14:39:56;;;;;;;8.20;3.03;;;;;;;;;;5114508;28;20097;-41
2023/02/24 14:42:22;;;;;;;6.82;3.58;;;;;;;;;;5114089;28;20027;-42
2023/02/24 14:44:50;;;;;;;7.50;3.10;;;;;;;;;;5114127;28;20027;-35
2023/02/24 14:47:17;;;;;;;6.93;3.10;;;;;;;;;;5113949;28;20084;-40
2023/02/24 14:49:51;;;;;;;7.43;3.60;;;;;;;;;;5114447;28;20084;-40
2023/02/24 14:52:17;;;;;;;;;;;;;;;;;;5114423;28;20460;-33
2023/02/24 14:54:58;;;;;;;7.85;3.28;;;;;;;;;;5113703;28;19952;-34
2023/02/24 14:57:27;;;;;;;11.60;3.70;;;;;;;;;;5113630;28;20061;-39
2023/02/24 14:59:59;;;;;;;9.95;3.28;;;;;;;;;;5113720;28;20401;-32
2023/02/24 15:02:29;;;;;;;5.15;3.13;;;;;;;;;;5113527;28;20461;-41
2023/02/24 15:04:55;;;;;;;5.18;3.40;;;;;;;;;;5114052;28;20027;-41
2023/02/24 15:07:23;;;;;;;7.82;3.38;;;;;;;;;;5113531;28;20023;-42
2023/02/24 15:09:50;;;;;;;6.57;3.55;;;;;;;;;;5113686;28;20054;-42
2023/02/24 15:12:36;;;;;;;6.97;3.30;;;;;;;;;;5113580;28;20053;-33
2023/02/24 15:15:05;;;;;;;7.57;3.28;;;;;;;;;;5113376;28;20027;-42
2023/02/24 15:17:32;;;;;;;7.18;3.08;;;;;;;;;;5113086;28;20027;-36
2023/02/24 15:19:58;;;;;;;6.20;3.10;;;;;;;;;;5113123;28;20047;-37